sensor_id;sensor_type;location;lat;lon;timestamp;temperature;humidity
46976;DHT22;32724;51.094;6.996;2023-05-23T00:00:30;15.80;99.90
46976;DHT22;32724;51.094;6.996;2023-05-23T00:02:57;15.70;99.90
46976;DHT22;32724;51.094;6.996;2023-05-23T00:05:25;15.60;99.90
46976;DHT22;32724;51.094;6.996;2023-05-23T00:07:51;15.50;99.90
46976;DHT22;32724;51.094;6.996;2023-05-23T00:10:16;15.40;99.90
46976;DHT22;32724;51.094;6.996;2023-05-23T00:12:41;15.30;99.90
46976;DHT22;32724;51.094;6.996;2023-05-23T00:15:07;15.20;99.90
46976;DHT22;32724;51.094;6.996;2023-05-23T00:17:34;15.20;99.90
46976;DHT22;32724;51.094;6.996;2023-05-23T00:20:01;15.10;99.90
46976;DHT22;32724;51.094;6.996;2023-05-23T00:22:27;15.10;99.90
46976;DHT22;32724;51.094;6.996;2023-05-23T00:24:52;15.10;99.90
46976;DHT22;32724;51.094;6.996;2023-05-23T00:27:18;15.20;99.90
46976;DHT22;32724;51.094;6.996;2023-05-23T00:29:43;15.30;99.90
46976;DHT22;32724;51.094;6.996;2023-05-23T00:32:09;15.30;99.90
46976;DHT22;32724;51.094;6.996;2023-05-23T00:34:34;15.40;99.90
46976;DHT22;32724;51.094;6.996;2023-05-23T00:37:00;15.40;99.90
46976;DHT22;32724;51.094;6.996;2023-05-23T00:39:26;15.40;99.90
46976;DHT22;32724;51.094;6.996;2023-05-23T00:41:51;15.50;99.90
46976;DHT22;32724;51.094;6.996;2023-05-23T00:44:17;15.60;99.90
46976;DHT22;32724;51.094;6.996;2023-05-23T00:46:44;15.60;99.90
46976;DHT22;32724;51.094;6.996;2023-05-23T00:49:11;15.60;99.90
46976;DHT22;32724;51.094;6.996;2023-05-23T00:51:37;15.60;99.90
46976;DHT22;32724;51.094;6.996;2023-05-23T00:54:06;15.60;99.90
46976;DHT22;32724;51.094;6.996;2023-05-23T00:56:31;15.70;99.90
46976;DHT22;32724;51.094;6.996;2023-05-23T00:58:57;15.70;99.90
46976;DHT22;32724;51.094;6.996;2023-05-23T01:01:24;15.70;99.90
46976;DHT22;32724;51.094;6.996;2023-05-23T01:03:50;15.70;99.90
46976;DHT22;32724;51.094;6.996;2023-05-23T01:06:15;15.60;99.90
46976;DHT22;32724;51.094;6.996;2023-05-23T01:08:41;15.70;99.90
46976;DHT22;32724;51.094;6.996;2023-05-23T01:11:11;15.70;99.90
46976;DHT22;32724;51.094;6.996;2023-05-23T01:13:40;15.70;99.90
46976;DHT22;32724;51.094;6.996;2023-05-23T01:18:35;15.70;99.90
46976;DHT22;32724;51.094;6.996;2023-05-23T01:21:04;15.70;99.90
46976;DHT22;32724;51.094;6.996;2023-05-23T01:28:51;15.60;99.90
46976;DHT22;32724;51.094;6.996;2023-05-23T01:31:18;15.60;99.90
46976;DHT22;32724;51.094;6.996;2023-05-23T01:33:46;15.60;99.90
46976;DHT22;32724;51.094;6.996;2023-05-23T01:36:14;15.50;99.90
46976;DHT22;32724;51.094;6.996;2023-05-23T01:38:39;15.50;99.90
46976;DHT22;32724;51.094;6.996;2023-05-23T01:41:05;15.40;99.90
46976;DHT22;32724;51.094;6.996;2023-05-23T01:43:30;15.40;99.90
46976;DHT22;32724;51.094;6.996;2023-05-23T01:45:56;15.40;99.90
46976;DHT22;32724;51.094;6.996;2023-05-23T01:48:22;15.40;99.90
46976;DHT22;32724;51.094;6.996;2023-05-23T01:50:49;15.40;99.90
46976;DHT22;32724;51.094;6.996;2023-05-23T01:53:15;15.40;99.90
46976;DHT22;32724;51.094;6.996;2023-05-23T01:55:41;15.40;99.90
46976;DHT22;32724;51.094;6.996;2023-05-23T01:58:06;15.40;99.90
46976;DHT22;32724;51.094;6.996;2023-05-23T02:00:32;15.40;99.90
46976;DHT22;32724;51.094;6.996;2023-05-23T02:02:58;15.40;99.90
46976;DHT22;32724;51.094;6.996;2023-05-23T02:05:23;15.40;99.90
46976;DHT22;32724;51.094;6.996;2023-05-23T02:07:49;15.40;99.90
46976;DHT22;32724;51.094;6.996;2023-05-23T02:10:14;15.40;99.90
46976;DHT22;32724;51.094;6.996;2023-05-23T02:12:40;15.40;99.90
46976;DHT22;32724;51.094;6.996;2023-05-23T02:15:05;15.30;99.90
46976;DHT22;32724;51.094;6.996;2023-05-23T02:17:31;15.40;99.90
46976;DHT22;32724;51.094;6.996;2023-05-23T02:19:57;15.40;99.90
46976;DHT22;32724;51.094;6.996;2023-05-23T02:22:22;15.40;99.90
46976;DHT22;32724;51.094;6.996;2023-05-23T02:24:51;15.40;99.90
46976;DHT22;32724;51.094;6.996;2023-05-23T02:27:16;15.40;99.90
46976;DHT22;32724;51.094;6.996;2023-05-23T02:29:42;15.40;99.90
46976;DHT22;32724;51.094;6.996;2023-05-23T02:32:08;15.40;99.90
46976;DHT22;32724;51.094;6.996;2023-05-23T02:34:33;15.40;99.90
46976;DHT22;32724;51.094;6.996;2023-05-23T02:36:58;15.40;99.90
46976;DHT22;32724;51.094;6.996;2023-05-23T02:39:24;15.40;99.90
46976;DHT22;32724;51.094;6.996;2023-05-23T02:41:49;15.40;99.90
46976;DHT22;32724;51.094;6.996;2023-05-23T02:44:15;15.40;99.90
46976;DHT22;32724;51.094;6.996;2023-05-23T02:46:44;15.40;99.90
46976;DHT22;32724;51.094;6.996;2023-05-23T02:49:09;15.40;99.90
46976;DHT22;32724;51.094;6.996;2023-05-23T02:51:34;15.40;99.90
46976;DHT22;32724;51.094;6.996;2023-05-23T02:54:00;15.40;99.90
46976;DHT22;32724;51.094;6.996;2023-05-23T02:56:25;15.40;99.90
46976;DHT22;32724;51.094;6.996;2023-05-23T02:58:52;15.30;99.90
46976;DHT22;32724;51.094;6.996;2023-05-23T03:01:17;15.40;99.90
46976;DHT22;32724;51.094;6.996;2023-05-23T03:03:43;15.40;99.90
46976;DHT22;32724;51.094;6.996;2023-05-23T03:06:08;15.40;99.90
46976;DHT22;32724;51.094;6.996;2023-05-23T03:08:41;15.40;99.90
46976;DHT22;32724;51.094;6.996;2023-05-23T03:11:07;15.30;99.90
46976;DHT22;32724;51.094;6.996;2023-05-23T03:13:33;15.30;99.90
46976;DHT22;32724;51.094;6.996;2023-05-23T03:15:58;15.30;99.90
46976;DHT22;32724;51.094;6.996;2023-05-23T03:18:24;15.30;99.90
46976;DHT22;32724;51.094;6.996;2023-05-23T03:20:49;15.30;99.90
46976;DHT22;32724;51.094;6.996;2023-05-23T03:23:15;15.30;99.90
46976;DHT22;32724;51.094;6.996;2023-05-23T03:25:41;15.30;99.90
46976;DHT22;32724;51.094;6.996;2023-05-23T03:28:07;15.30;99.90
46976;DHT22;32724;51.094;6.996;2023-05-23T03:30:32;15.20;99.90
46976;DHT22;32724;51.094;6.996;2023-05-23T03:32:58;15.20;99.90
46976;DHT22;32724;51.094;6.996;2023-05-23T03:35:23;15.20;99.90
46976;DHT22;32724;51.094;6.996;2023-05-23T03:37:48;15.10;99.90
46976;DHT22;32724;51.094;6.996;2023-05-23T03:40:14;15.10;99.90
46976;DHT22;32724;51.094;6.996;2023-05-23T03:42:40;15.10;99.90
46976;DHT22;32724;51.094;6.996;2023-05-23T03:45:05;15.10;99.90
46976;DHT22;32724;51.094;6.996;2023-05-23T03:47:31;15.10;99.90
46976;DHT22;32724;51.094;6.996;2023-05-23T03:49:56;15.10;99.90
46976;DHT22;32724;51.094;6.996;2023-05-23T03:52:22;15.10;99.90
46976;DHT22;32724;51.094;6.996;2023-05-23T03:54:47;15.10;99.90
46976;DHT22;32724;51.094;6.996;2023-05-23T03:57:13;15.20;99.90
46976;DHT22;32724;51.094;6.996;2023-05-23T03:59:38;15.10;99.90
46976;DHT22;32724;51.094;6.996;2023-05-23T04:02:04;15.20;99.90
46976;DHT22;32724;51.094;6.996;2023-05-23T04:04:30;15.20;99.90
46976;DHT22;32724;51.094;6.996;2023-05-23T04:06:56;15.20;99.90
46976;DHT22;32724;51.094;6.996;2023-05-23T04:09:22;15.20;99.90
46976;DHT22;32724;51.094;6.996;2023-05-23T04:11:47;15.20;99.90
46976;DHT22;32724;51.094;6.996;2023-05-23T04:14:13;15.10;99.90
46976;DHT22;32724;51.094;6.996;2023-05-23T04:16:38;15.10;99.90
46976;DHT22;32724;51.094;6.996;2023-05-23T04:19:06;15.10;99.90
46976;DHT22;32724;51.094;6.996;2023-05-23T04:21:31;15.00;99.90
46976;DHT22;32724;51.094;6.996;2023-05-23T04:23:57;14.90;99.90
46976;DHT22;32724;51.094;6.996;2023-05-23T04:26:22;14.90;99.90
46976;DHT22;32724;51.094;6.996;2023-05-23T04:28:48;14.90;99.90
46976;DHT22;32724;51.094;6.996;2023-05-23T04:31:14;14.90;99.90
46976;DHT22;32724;51.094;6.996;2023-05-23T04:33:39;14.80;99.90
46976;DHT22;32724;51.094;6.996;2023-05-23T04:36:05;14.70;99.90
46976;DHT22;32724;51.094;6.996;2023-05-23T04:38:33;14.60;99.90
46976;DHT22;32724;51.094;6.996;2023-05-23T04:40:59;14.40;99.90
46976;DHT22;32724;51.094;6.996;2023-05-23T04:43:24;14.20;99.90
46976;DHT22;32724;51.094;6.996;2023-05-23T04:45:51;14.10;99.90
46976;DHT22;32724;51.094;6.996;2023-05-23T04:48:20;14.30;99.90
46976;DHT22;32724;51.094;6.996;2023-05-23T04:50:48;14.40;99.90
46976;DHT22;32724;51.094;6.996;2023-05-23T04:53:15;14.50;99.90
46976;DHT22;32724;51.094;6.996;2023-05-23T04:55:40;14.60;99.90
46976;DHT22;32724;51.094;6.996;2023-05-23T04:58:06;14.60;99.90
46976;DHT22;32724;51.094;6.996;2023-05-23T05:00:32;14.60;99.90
46976;DHT22;32724;51.094;6.996;2023-05-23T05:02:57;14.70;99.90
46976;DHT22;32724;51.094;6.996;2023-05-23T05:05:23;14.80;99.90
46976;DHT22;32724;51.094;6.996;2023-05-23T05:07:48;14.80;99.90
46976;DHT22;32724;51.094;6.996;2023-05-23T05:10:14;14.80;99.90
46976;DHT22;32724;51.094;6.996;2023-05-23T05:12:44;14.80;99.90
46976;DHT22;32724;51.094;6.996;2023-05-23T05:15:11;14.90;99.90
46976;DHT22;32724;51.094;6.996;2023-05-23T05:17:37;15.00;99.90
46976;DHT22;32724;51.094;6.996;2023-05-23T05:20:03;15.00;99.90
46976;DHT22;32724;51.094;6.996;2023-05-23T05:22:33;15.00;99.90
46976;DHT22;32724;51.094;6.996;2023-05-23T05:24:59;15.00;99.90
46976;DHT22;32724;51.094;6.996;2023-05-23T05:27:25;15.00;99.90
46976;DHT22;32724;51.094;6.996;2023-05-23T05:29:51;15.00;99.90
46976;DHT22;32724;51.094;6.996;2023-05-23T05:32:17;15.00;99.90
46976;DHT22;32724;51.094;6.996;2023-05-23T05:34:43;15.10;99.90
46976;DHT22;32724;51.094;6.996;2023-05-23T05:37:08;15.00;99.90
46976;DHT22;32724;51.094;6.996;2023-05-23T05:39:34;15.00;99.90
46976;DHT22;32724;51.094;6.996;2023-05-23T05:41:59;15.00;99.90
46976;DHT22;32724;51.094;6.996;2023-05-23T05:44:27;15.00;99.90
46976;DHT22;32724;51.094;6.996;2023-05-23T05:46:53;15.00;99.90
46976;DHT22;32724;51.094;6.996;2023-05-23T05:49:19;15.10;99.90
46976;DHT22;32724;51.094;6.996;2023-05-23T05:51:44;15.00;99.90
46976;DHT22;32724;51.094;6.996;2023-05-23T05:54:10;15.10;99.90
46976;DHT22;32724;51.094;6.996;2023-05-23T05:56:35;15.00;99.90
46976;DHT22;32724;51.094;6.996;2023-05-23T05:59:01;15.00;99.90
46976;DHT22;32724;51.094;6.996;2023-05-23T06:01:26;14.90;99.90
46976;DHT22;32724;51.094;6.996;2023-05-23T06:03:52;14.90;99.90
46976;DHT22;32724;51.094;6.996;2023-05-23T06:06:17;14.90;99.90
46976;DHT22;32724;51.094;6.996;2023-05-23T06:08:43;14.80;99.90
46976;DHT22;32724;51.094;6.996;2023-05-23T06:11:09;14.80;99.90
46976;DHT22;32724;51.094;6.996;2023-05-23T06:13:36;14.80;99.90
46976;DHT22;32724;51.094;6.996;2023-05-23T06:16:01;14.70;99.90
46976;DHT22;32724;51.094;6.996;2023-05-23T06:18:27;14.80;99.90
46976;DHT22;32724;51.094;6.996;2023-05-23T06:20:52;14.80;99.90
46976;DHT22;32724;51.094;6.996;2023-05-23T06:23:18;14.80;99.90
46976;DHT22;32724;51.094;6.996;2023-05-23T06:25:43;14.80;99.90
46976;DHT22;32724;51.094;6.996;2023-05-23T06:28:09;14.80;99.90
46976;DHT22;32724;51.094;6.996;2023-05-23T06:30:34;14.90;99.90
46976;DHT22;32724;51.094;6.996;2023-05-23T06:33:02;15.00;99.90
46976;DHT22;32724;51.094;6.996;2023-05-23T06:35:27;15.00;99.90
46976;DHT22;32724;51.094;6.996;2023-05-23T06:37:53;15.00;99.90
46976;DHT22;32724;51.094;6.996;2023-05-23T06:40:18;15.00;99.90
46976;DHT22;32724;51.094;6.996;2023-05-23T06:42:44;15.10;99.90
46976;DHT22;32724;51.094;6.996;2023-05-23T06:45:09;15.10;99.90
46976;DHT22;32724;51.094;6.996;2023-05-23T06:47:35;15.10;99.90
46976;DHT22;32724;51.094;6.996;2023-05-23T06:50:01;15.10;99.90
46976;DHT22;32724;51.094;6.996;2023-05-23T06:52:26;15.10;99.90
46976;DHT22;32724;51.094;6.996;2023-05-23T06:54:52;15.10;99.90
46976;DHT22;32724;51.094;6.996;2023-05-23T06:57:17;15.00;99.90
46976;DHT22;32724;51.094;6.996;2023-05-23T06:59:43;15.00;99.90
46976;DHT22;32724;51.094;6.996;2023-05-23T07:02:08;15.00;99.90
46976;DHT22;32724;51.094;6.996;2023-05-23T07:04:33;15.10;99.90
46976;DHT22;32724;51.094;6.996;2023-05-23T07:06:59;15.20;99.90
46976;DHT22;32724;51.094;6.996;2023-05-23T07:09:24;15.30;99.90
46976;DHT22;32724;51.094;6.996;2023-05-23T07:11:50;15.50;99.90
46976;DHT22;32724;51.094;6.996;2023-05-23T07:14:15;15.50;99.90
46976;DHT22;32724;51.094;6.996;2023-05-23T07:16:41;15.60;99.90
46976;DHT22;32724;51.094;6.996;2023-05-23T07:19:06;15.50;99.90
46976;DHT22;32724;51.094;6.996;2023-05-23T07:21:32;15.40;99.90
46976;DHT22;32724;51.094;6.996;2023-05-23T07:23:57;15.40;99.90
46976;DHT22;32724;51.094;6.996;2023-05-23T07:26:23;15.30;99.90
46976;DHT22;32724;51.094;6.996;2023-05-23T07:28:48;15.30;99.90
46976;DHT22;32724;51.094;6.996;2023-05-23T07:31:15;15.20;99.90
46976;DHT22;32724;51.094;6.996;2023-05-23T07:33:41;15.20;99.90
46976;DHT22;32724;51.094;6.996;2023-05-23T07:36:06;15.20;99.90
46976;DHT22;32724;51.094;6.996;2023-05-23T07:38:32;15.20;99.90
46976;DHT22;32724;51.094;6.996;2023-05-23T07:40:57;15.10;99.90
46976;DHT22;32724;51.094;6.996;2023-05-23T07:43:23;15.20;99.90
46976;DHT22;32724;51.094;6.996;2023-05-23T07:45:48;15.20;99.90
46976;DHT22;32724;51.094;6.996;2023-05-23T07:48:14;15.20;99.90
46976;DHT22;32724;51.094;6.996;2023-05-23T07:50:39;15.20;99.90
46976;DHT22;32724;51.094;6.996;2023-05-23T07:53:05;15.30;99.90
46976;DHT22;32724;51.094;6.996;2023-05-23T07:55:30;15.30;99.90
46976;DHT22;32724;51.094;6.996;2023-05-23T07:57:56;15.40;99.90
46976;DHT22;32724;51.094;6.996;2023-05-23T08:00:21;15.50;99.90
46976;DHT22;32724;51.094;6.996;2023-05-23T08:02:47;15.40;99.90
46976;DHT22;32724;51.094;6.996;2023-05-23T08:05:12;15.40;99.90
46976;DHT22;32724;51.094;6.996;2023-05-23T08:07:38;15.40;99.90
46976;DHT22;32724;51.094;6.996;2023-05-23T08:10:03;15.30;99.90
46976;DHT22;32724;51.094;6.996;2023-05-23T08:12:29;15.30;99.90
46976;DHT22;32724;51.094;6.996;2023-05-23T08:14:54;15.30;99.90
46976;DHT22;32724;51.094;6.996;2023-05-23T08:17:20;15.40;99.90
46976;DHT22;32724;51.094;6.996;2023-05-23T08:19:45;15.30;99.90
46976;DHT22;32724;51.094;6.996;2023-05-23T08:22:11;15.30;99.90
46976;DHT22;32724;51.094;6.996;2023-05-23T08:24:37;15.30;99.90
46976;DHT22;32724;51.094;6.996;2023-05-23T08:27:03;15.20;99.90
46976;DHT22;32724;51.094;6.996;2023-05-23T08:29:28;15.20;99.90
46976;DHT22;32724;51.094;6.996;2023-05-23T08:31:54;15.20;99.90
46976;DHT22;32724;51.094;6.996;2023-05-23T08:34:19;15.30;99.90
46976;DHT22;32724;51.094;6.996;2023-05-23T08:36:45;15.30;99.90
46976;DHT22;32724;51.094;6.996;2023-05-23T08:39:10;15.40;99.90
46976;DHT22;32724;51.094;6.996;2023-05-23T08:41:36;15.40;99.90
46976;DHT22;32724;51.094;6.996;2023-05-23T08:44:01;15.50;99.90
46976;DHT22;32724;51.094;6.996;2023-05-23T08:46:27;15.60;99.90
46976;DHT22;32724;51.094;6.996;2023-05-23T08:48:53;15.70;99.90
46976;DHT22;32724;51.094;6.996;2023-05-23T08:51:24;15.70;99.90
46976;DHT22;32724;51.094;6.996;2023-05-23T08:53:50;15.40;99.90
46976;DHT22;32724;51.094;6.996;2023-05-23T08:56:18;15.40;99.90
46976;DHT22;32724;51.094;6.996;2023-05-23T08:58:43;15.40;99.90
46976;DHT22;32724;51.094;6.996;2023-05-23T09:01:12;15.30;99.90
46976;DHT22;32724;51.094;6.996;2023-05-23T09:03:38;15.20;99.90
46976;DHT22;32724;51.094;6.996;2023-05-23T09:06:08;15.10;99.90
46976;DHT22;32724;51.094;6.996;2023-05-23T09:08:33;15.10;99.90
46976;DHT22;32724;51.094;6.996;2023-05-23T09:10:59;15.40;99.90
46976;DHT22;32724;51.094;6.996;2023-05-23T09:13:30;15.30;99.90
46976;DHT22;32724;51.094;6.996;2023-05-23T09:16:03;15.20;99.90
46976;DHT22;32724;51.094;6.996;2023-05-23T09:18:32;15.10;99.90
46976;DHT22;32724;51.094;6.996;2023-05-23T09:20:58;14.90;99.90
46976;DHT22;32724;51.094;6.996;2023-05-23T09:23:23;14.70;99.90
46976;DHT22;32724;51.094;6.996;2023-05-23T09:25:49;14.60;99.90
46976;DHT22;32724;51.094;6.996;2023-05-23T09:28:15;14.60;99.90
46976;DHT22;32724;51.094;6.996;2023-05-23T09:30:40;14.50;99.90
46976;DHT22;32724;51.094;6.996;2023-05-23T09:33:06;14.40;99.90
46976;DHT22;32724;51.094;6.996;2023-05-23T09:35:31;14.40;99.90
46976;DHT22;32724;51.094;6.996;2023-05-23T09:37:57;14.30;99.90
46976;DHT22;32724;51.094;6.996;2023-05-23T09:40:29;14.30;99.90
46976;DHT22;32724;51.094;6.996;2023-05-23T09:42:56;14.20;99.90
46976;DHT22;32724;51.094;6.996;2023-05-23T09:45:28;14.20;99.90
46976;DHT22;32724;51.094;6.996;2023-05-23T09:47:54;14.30;99.90
46976;DHT22;32724;51.094;6.996;2023-05-23T09:50:20;14.30;99.90
46976;DHT22;32724;51.094;6.996;2023-05-23T09:52:46;14.30;99.90
46976;DHT22;32724;51.094;6.996;2023-05-23T09:55:12;14.50;99.90
46976;DHT22;32724;51.094;6.996;2023-05-23T09:57:39;14.60;99.90
46976;DHT22;32724;51.094;6.996;2023-05-23T10:00:05;14.70;99.90
46976;DHT22;32724;51.094;6.996;2023-05-23T10:05:09;15.20;99.90
46976;DHT22;32724;51.094;6.996;2023-05-23T10:07:40;15.60;99.90
46976;DHT22;32724;51.094;6.996;2023-05-23T10:10:05;15.80;99.90
46976;DHT22;32724;51.094;6.996;2023-05-23T10:12:49;16.10;99.90
46976;DHT22;32724;51.094;6.996;2023-05-23T10:15:15;16.10;99.90
46976;DHT22;32724;51.094;6.996;2023-05-23T10:17:52;16.40;99.90
46976;DHT22;32724;51.094;6.996;2023-05-23T10:20:21;16.60;99.90
46976;DHT22;32724;51.094;6.996;2023-05-23T10:22:49;17.20;99.90
46976;DHT22;32724;51.094;6.996;2023-05-23T10:25:15;17.50;99.90
46976;DHT22;32724;51.094;6.996;2023-05-23T10:27:40;17.10;99.90
46976;DHT22;32724;51.094;6.996;2023-05-23T10:30:06;16.80;99.90
46976;DHT22;32724;51.094;6.996;2023-05-23T10:32:32;16.90;99.90
46976;DHT22;32724;51.094;6.996;2023-05-23T10:35:00;17.00;99.90
46976;DHT22;32724;51.094;6.996;2023-05-23T10:37:32;17.10;99.90
46976;DHT22;32724;51.094;6.996;2023-05-23T10:40:04;17.00;99.90
46976;DHT22;32724;51.094;6.996;2023-05-23T10:42:39;17.00;99.90
46976;DHT22;32724;51.094;6.996;2023-05-23T10:45:19;16.80;99.90
46976;DHT22;32724;51.094;6.996;2023-05-23T10:47:46;16.30;99.90
46976;DHT22;32724;51.094;6.996;2023-05-23T10:50:12;15.70;99.90
46976;DHT22;32724;51.094;6.996;2023-05-23T10:52:38;15.50;99.90
46976;DHT22;32724;51.094;6.996;2023-05-23T10:55:11;15.20;99.90
46976;DHT22;32724;51.094;6.996;2023-05-23T10:57:37;15.10;99.90
46976;DHT22;32724;51.094;6.996;2023-05-23T11:00:02;14.90;99.90
46976;DHT22;32724;51.094;6.996;2023-05-23T11:02:28;14.70;99.90
46976;DHT22;32724;51.094;6.996;2023-05-23T11:07:38;14.70;99.90
46976;DHT22;32724;51.094;6.996;2023-05-23T11:10:09;14.60;99.90
46976;DHT22;32724;51.094;6.996;2023-05-23T11:12:41;14.30;99.90
46976;DHT22;32724;51.094;6.996;2023-05-23T11:17:52;14.10;99.90
46976;DHT22;32724;51.094;6.996;2023-05-23T11:20:18;14.00;99.90
46976;DHT22;32724;51.094;6.996;2023-05-23T11:22:55;14.00;99.90
46976;DHT22;32724;51.094;6.996;2023-05-23T11:25:38;14.20;99.90
46976;DHT22;32724;51.094;6.996;2023-05-23T11:28:04;14.40;99.90
46976;DHT22;32724;51.094;6.996;2023-05-23T11:30:30;14.60;99.90
46976;DHT22;32724;51.094;6.996;2023-05-23T11:32:56;14.90;99.90
46976;DHT22;32724;51.094;6.996;2023-05-23T11:35:22;15.30;99.90
46976;DHT22;32724;51.094;6.996;2023-05-23T11:37:47;15.70;99.90
46976;DHT22;32724;51.094;6.996;2023-05-23T11:40:32;16.00;99.90
46976;DHT22;32724;51.094;6.996;2023-05-23T11:42:59;16.60;99.90
46976;DHT22;32724;51.094;6.996;2023-05-23T11:45:25;16.40;99.90
46976;DHT22;32724;51.094;6.996;2023-05-23T11:47:51;16.60;99.90
46976;DHT22;32724;51.094;6.996;2023-05-23T11:50:17;17.00;99.90
46976;DHT22;32724;51.094;6.996;2023-05-23T11:52:44;17.40;99.90
46976;DHT22;32724;51.094;6.996;2023-05-23T11:55:15;17.70;99.90
46976;DHT22;32724;51.094;6.996;2023-05-23T11:57:41;18.10;99.90
46976;DHT22;32724;51.094;6.996;2023-05-23T12:00:07;18.00;99.90
46976;DHT22;32724;51.094;6.996;2023-05-23T12:02:40;17.30;99.90
46976;DHT22;32724;51.094;6.996;2023-05-23T12:05:07;17.00;99.90
46976;DHT22;32724;51.094;6.996;2023-05-23T12:07:32;16.80;99.90
46976;DHT22;32724;51.094;6.996;2023-05-23T12:09:58;16.50;99.90
46976;DHT22;32724;51.094;6.996;2023-05-23T12:12:23;16.30;99.90
46976;DHT22;32724;51.094;6.996;2023-05-23T12:14:49;16.30;99.90
46976;DHT22;32724;51.094;6.996;2023-05-23T12:17:14;16.40;99.90
46976;DHT22;32724;51.094;6.996;2023-05-23T12:19:44;16.40;99.90
46976;DHT22;32724;51.094;6.996;2023-05-23T12:22:09;16.70;99.90
46976;DHT22;32724;51.094;6.996;2023-05-23T12:24:35;16.80;99.90
46976;DHT22;32724;51.094;6.996;2023-05-23T12:27:01;16.90;99.90
46976;DHT22;32724;51.094;6.996;2023-05-23T12:29:28;16.70;99.90
46976;DHT22;32724;51.094;6.996;2023-05-23T12:31:53;16.60;99.90
46976;DHT22;32724;51.094;6.996;2023-05-23T12:34:19;16.80;99.90
46976;DHT22;32724;51.094;6.996;2023-05-23T12:36:45;17.00;99.90
46976;DHT22;32724;51.094;6.996;2023-05-23T12:39:13;17.40;99.90
46976;DHT22;32724;51.094;6.996;2023-05-23T12:41:43;17.40;99.90
46976;DHT22;32724;51.094;6.996;2023-05-23T12:44:09;17.30;99.90
46976;DHT22;32724;51.094;6.996;2023-05-23T12:46:34;17.00;99.90
46976;DHT22;32724;51.094;6.996;2023-05-23T12:49:00;16.90;99.90
46976;DHT22;32724;51.094;6.996;2023-05-23T12:51:25;16.80;99.90
46976;DHT22;32724;51.094;6.996;2023-05-23T12:53:51;16.90;99.90
46976;DHT22;32724;51.094;6.996;2023-05-23T12:56:16;17.00;99.90
46976;DHT22;32724;51.094;6.996;2023-05-23T12:58:42;17.20;99.90
46976;DHT22;32724;51.094;6.996;2023-05-23T13:01:08;17.20;99.90
46976;DHT22;32724;51.094;6.996;2023-05-23T13:03:33;16.90;99.90
46976;DHT22;32724;51.094;6.996;2023-05-23T13:05:59;17.10;99.90
46976;DHT22;32724;51.094;6.996;2023-05-23T13:08:25;17.40;99.90
46976;DHT22;32724;51.094;6.996;2023-05-23T13:10:54;17.30;99.90
46976;DHT22;32724;51.094;6.996;2023-05-23T13:13:20;17.50;99.90
46976;DHT22;32724;51.094;6.996;2023-05-23T13:15:46;17.70;99.90
46976;DHT22;32724;51.094;6.996;2023-05-23T13:18:12;17.70;99.90
46976;DHT22;32724;51.094;6.996;2023-05-23T13:20:37;17.70;99.90
46976;DHT22;32724;51.094;6.996;2023-05-23T13:23:02;17.60;99.90
46976;DHT22;32724;51.094;6.996;2023-05-23T13:25:28;17.60;99.90
46976;DHT22;32724;51.094;6.996;2023-05-23T13:27:53;17.70;99.90
46976;DHT22;32724;51.094;6.996;2023-05-23T13:30:19;17.80;99.90
46976;DHT22;32724;51.094;6.996;2023-05-23T13:32:45;17.90;99.90
46976;DHT22;32724;51.094;6.996;2023-05-23T13:35:10;18.00;99.90
46976;DHT22;32724;51.094;6.996;2023-05-23T13:37:36;17.60;99.90
46976;DHT22;32724;51.094;6.996;2023-05-23T13:40:02;17.40;99.90
46976;DHT22;32724;51.094;6.996;2023-05-23T13:42:27;17.30;99.90
46976;DHT22;32724;51.094;6.996;2023-05-23T13:44:53;17.10;99.90
46976;DHT22;32724;51.094;6.996;2023-05-23T13:47:20;17.30;99.90
46976;DHT22;32724;51.094;6.996;2023-05-23T13:49:46;17.70;99.90
46976;DHT22;32724;51.094;6.996;2023-05-23T13:52:11;18.00;99.90
46976;DHT22;32724;51.094;6.996;2023-05-23T13:54:37;18.20;99.90
46976;DHT22;32724;51.094;6.996;2023-05-23T13:57:02;18.10;99.90
46976;DHT22;32724;51.094;6.996;2023-05-23T13:59:28;18.10;99.90
46976;DHT22;32724;51.094;6.996;2023-05-23T14:01:54;18.00;99.90
46976;DHT22;32724;51.094;6.996;2023-05-23T14:04:19;17.80;99.90
46976;DHT22;32724;51.094;6.996;2023-05-23T14:06:45;17.70;99.90
46976;DHT22;32724;51.094;6.996;2023-05-23T14:09:11;17.90;99.90
46976;DHT22;32724;51.094;6.996;2023-05-23T14:11:36;18.20;99.90
46976;DHT22;32724;51.094;6.996;2023-05-23T14:14:02;18.50;99.80
46976;DHT22;32724;51.094;6.996;2023-05-23T14:16:28;18.20;99.50
46976;DHT22;32724;51.094;6.996;2023-05-23T14:18:53;18.00;99.90
46976;DHT22;32724;51.094;6.996;2023-05-23T14:21:19;17.80;99.90
46976;DHT22;32724;51.094;6.996;2023-05-23T14:23:45;17.70;99.90
46976;DHT22;32724;51.094;6.996;2023-05-23T14:26:11;17.80;99.90
46976;DHT22;32724;51.094;6.996;2023-05-23T14:28:36;17.80;99.50
46976;DHT22;32724;51.094;6.996;2023-05-23T14:31:01;17.80;99.80
46976;DHT22;32724;51.094;6.996;2023-05-23T14:33:27;17.90;98.70
46976;DHT22;32724;51.094;6.996;2023-05-23T14:35:52;17.80;97.70
46976;DHT22;32724;51.094;6.996;2023-05-23T14:38:18;17.80;97.60
46976;DHT22;32724;51.094;6.996;2023-05-23T14:40:44;18.00;98.00
46976;DHT22;32724;51.094;6.996;2023-05-23T14:43:09;18.30;99.20
46976;DHT22;32724;51.094;6.996;2023-05-23T14:45:35;18.50;98.30
46976;DHT22;32724;51.094;6.996;2023-05-23T14:48:01;18.90;97.80
46976;DHT22;32724;51.094;6.996;2023-05-23T14:50:26;19.00;97.10
46976;DHT22;32724;51.094;6.996;2023-05-23T14:52:52;18.90;96.70
46976;DHT22;32724;51.094;6.996;2023-05-23T14:55:17;18.60;96.50
46976;DHT22;32724;51.094;6.996;2023-05-23T14:57:43;18.30;96.40
46976;DHT22;32724;51.094;6.996;2023-05-23T15:00:09;18.20;97.50
46976;DHT22;32724;51.094;6.996;2023-05-23T15:02:35;18.20;97.50
46976;DHT22;32724;51.094;6.996;2023-05-23T15:05:02;18.10;98.40
46976;DHT22;32724;51.094;6.996;2023-05-23T15:07:27;18.10;96.90
46976;DHT22;32724;51.094;6.996;2023-05-23T15:09:53;18.20;96.60
46976;DHT22;32724;51.094;6.996;2023-05-23T15:12:19;18.20;96.80
46976;DHT22;32724;51.094;6.996;2023-05-23T15:14:45;18.30;96.60
46976;DHT22;32724;51.094;6.996;2023-05-23T15:17:10;18.40;97.00
46976;DHT22;32724;51.094;6.996;2023-05-23T15:19:37;18.60;97.70
46976;DHT22;32724;51.094;6.996;2023-05-23T15:22:06;18.60;96.60
46976;DHT22;32724;51.094;6.996;2023-05-23T15:24:32;18.40;96.40
46976;DHT22;32724;51.094;6.996;2023-05-23T15:26:57;18.20;95.90
46976;DHT22;32724;51.094;6.996;2023-05-23T15:29:23;17.80;96.60
46976;DHT22;32724;51.094;6.996;2023-05-23T15:31:49;17.80;98.10
46976;DHT22;32724;51.094;6.996;2023-05-23T15:34:15;18.00;97.60
46976;DHT22;32724;51.094;6.996;2023-05-23T15:36:40;18.00;96.40
46976;DHT22;32724;51.094;6.996;2023-05-23T15:39:06;18.10;96.10